createdAt,value
2023-08-29T00:02:58.583Z,95364.69
2023-08-29T00:07:11.109Z,95363.97
2023-08-29T00:11:23.547Z,95368.19
2023-08-29T00:15:36.046Z,95364.19
2023-08-29T00:19:48.598Z,95367.25
2023-08-29T00:24:01.089Z,95379.88
2023-08-29T00:28:13.824Z,95374.84
2023-08-29T00:32:26.345Z,95374.53
2023-08-29T00:36:38.845Z,95368.84
2023-08-29T00:40:51.296Z,95367.81
2023-08-29T00:45:04.395Z,95367.97
2023-08-29T00:49:21.208Z,95378.75
2023-08-29T00:53:34.804Z,95374.75
2023-08-29T00:57:47.329Z,95364.88
2023-08-29T01:01:59.810Z,95381.47
2023-08-29T01:06:13.237Z,95379.63
2023-08-29T01:10:38.596Z,95385.94
2023-08-29T01:15:07.237Z,95379.03
2023-08-29T01:19:25.297Z,95380.56
2023-08-29T01:23:45.355Z,95367.72
2023-08-29T01:27:58.696Z,95356.66
2023-08-29T01:32:14.724Z,95358.66
2023-08-29T01:36:43.779Z,95368.69
2023-08-29T01:40:56.149Z,95367.59
2023-08-29T01:45:09.353Z,95364.00
2023-08-29T01:49:21.930Z,95370.53
2023-08-29T01:53:34.438Z,95373.50
2023-08-29T01:57:48.206Z,95372.28
2023-08-29T02:02:03.016Z,95368.78
2023-08-29T02:06:16.582Z,95375.59
2023-08-29T02:10:29.079Z,95380.13
2023-08-29T02:14:41.578Z,95377.03
2023-08-29T02:18:54.893Z,95374.00
2023-08-29T02:23:07.474Z,95362.56
2023-08-29T02:27:19.988Z,95360.13
2023-08-29T02:31:32.524Z,95371.72
2023-08-29T02:35:45.015Z,95379.16
2023-08-29T02:39:57.514Z,95365.53
2023-08-29T02:44:10.091Z,95364.69
2023-08-29T02:48:22.616Z,95370.91
2023-08-29T02:52:35.071Z,95367.09
2023-08-29T02:56:47.576Z,95365.72
2023-08-29T03:01:01.511Z,95368.09
2023-08-29T03:05:14.094Z,95356.88
2023-08-29T03:09:27.477Z,95356.81
2023-08-29T03:13:39.996Z,95355.09
2023-08-29T03:17:52.554Z,95347.22
2023-08-29T03:22:05.161Z,95349.88
2023-08-29T03:26:17.786Z,95355.44
2023-08-29T03:30:31.835Z,95354.41
2023-08-29T03:34:44.348Z,95343.88
2023-08-29T03:38:56.921Z,95355.97
2023-08-29T03:43:09.697Z,95336.16
2023-08-29T03:47:22.310Z,95341.59
2023-08-29T03:51:35.781Z,95337.66
2023-08-29T03:55:48.320Z,95365.41
2023-08-29T04:00:00.851Z,95367.63
2023-08-29T04:04:13.518Z,95364.69
2023-08-29T04:08:26.250Z,95366.41
2023-08-29T04:12:38.831Z,95352.06
2023-08-29T04:16:51.292Z,95352.00
2023-08-29T04:21:04.617Z,95345.13
2023-08-29T04:25:17.168Z,95350.84
2023-08-29T04:29:29.679Z,95344.47
2023-08-29T04:33:44.555Z,95358.84
2023-08-29T04:37:57.122Z,95366.50
2023-08-29T04:42:09.682Z,95361.75
2023-08-29T04:46:22.238Z,95355.72
2023-08-29T04:50:35.542Z,95356.91
2023-08-29T04:54:48.054Z,95359.66
2023-08-29T04:59:00.593Z,95360.44
2023-08-29T05:03:13.187Z,95360.00
2023-08-29T05:07:25.777Z,95363.38
2023-08-29T05:11:38.480Z,95353.94
2023-08-29T05:15:51.024Z,95361.31
2023-08-29T05:20:03.688Z,95355.50
2023-08-29T05:24:16.210Z,95360.06
2023-08-29T05:28:28.798Z,95345.22
2023-08-29T05:32:41.529Z,95370.31
2023-08-29T05:36:54.177Z,95370.75
2023-08-29T05:41:06.756Z,95354.06
2023-08-29T05:45:19.362Z,95371.34
2023-08-29T05:49:31.880Z,95355.19
2023-08-29T05:53:44.444Z,95367.16
2023-08-29T05:57:56.961Z,95379.97
2023-08-29T06:02:09.529Z,95373.81
2023-08-29T06:06:22.005Z,95394.31
2023-08-29T06:10:34.532Z,95386.47
2023-08-29T06:14:47.047Z,95395.66
2023-08-29T06:19:00.141Z,95384.72
2023-08-29T06:23:12.740Z,95386.44
2023-08-29T06:27:25.316Z,95398.16
2023-08-29T06:31:37.844Z,95408.41
2023-08-29T06:35:50.396Z,95420.50
2023-08-29T06:40:02.977Z,95421.56
2023-08-29T06:44:15.436Z,95425.38
2023-08-29T06:48:28.073Z,95411.25
2023-08-29T06:52:40.549Z,95422.88
2023-08-29T06:56:53.070Z,95437.25
2023-08-29T07:01:05.652Z,95440.09
2023-08-29T07:05:18.659Z,95424.88
2023-08-29T07:09:32.309Z,95422.09
2023-08-29T07:13:44.898Z,95432.41
2023-08-29T07:17:57.508Z,95435.53
2023-08-29T07:22:23.564Z,95432.63
2023-08-29T07:26:36.794Z,95442.25
2023-08-29T07:30:53.215Z,95436.38
2023-08-29T07:35:06.293Z,95430.34
2023-08-29T07:39:23.936Z,95445.06
2023-08-29T07:43:36.493Z,95446.03
2023-08-29T07:47:50.246Z,95450.75
2023-08-29T07:52:03.091Z,95442.31
2023-08-29T07:56:15.893Z,95431.16
2023-08-29T08:00:30.144Z,95451.19
2023-08-29T08:04:42.767Z,95430.91
2023-08-29T08:08:55.707Z,95444.78
2023-08-29T08:13:09.172Z,95449.47
2023-08-29T08:17:21.800Z,95445.41
2023-08-29T08:21:34.391Z,95453.34
2023-08-29T08:25:46.918Z,95465.50
2023-08-29T08:29:59.921Z,95467.56
2023-08-29T08:34:13.806Z,95468.28
2023-08-29T08:38:26.340Z,95468.78
2023-08-29T08:42:41.843Z,95474.84
2023-08-29T08:46:55.271Z,95471.53
2023-08-29T08:51:08.939Z,95471.91
2023-08-29T08:55:21.724Z,95502.03
2023-08-29T08:59:35.049Z,95485.81
2023-08-29T09:03:47.633Z,95504.84
2023-08-29T09:08:01.468Z,95498.28
2023-08-29T09:12:18.499Z,95509.25
2023-08-29T09:16:31.221Z,95525.06
2023-08-29T09:20:48.223Z,95517.06
2023-08-29T09:25:05.422Z,95506.97
2023-08-29T09:29:20.539Z,95496.41
2023-08-29T09:33:33.771Z,95491.88
2023-08-29T09:37:53.073Z,95497.84
2023-08-29T09:42:08.991Z,95492.81
2023-08-29T09:46:31.821Z,95481.25
2023-08-29T09:50:45.930Z,95500.88
2023-08-29T09:54:59.274Z,95503.19
2023-08-29T09:59:14.138Z,95497.53
2023-08-29T10:03:26.882Z,95501.72
2023-08-29T10:07:45.574Z,95511.03
2023-08-29T10:11:58.961Z,95498.88
2023-08-29T10:16:11.887Z,95512.06
2023-08-29T10:20:26.506Z,95510.78
2023-08-29T10:24:39.320Z,95478.88
2023-08-29T10:28:52.886Z,95496.16
2023-08-29T10:33:06.390Z,95498.78
2023-08-29T10:37:22.895Z,95496.59
2023-08-29T10:41:48.752Z,95513.81
2023-08-29T10:46:18.080Z,95486.53
2023-08-29T10:50:30.889Z,95502.91
2023-08-29T10:54:43.523Z,95509.81
2023-08-29T10:58:56.944Z,95484.53
2023-08-29T11:03:10.415Z,95509.75
2023-08-29T11:07:27.221Z,95485.97
2023-08-29T11:11:39.776Z,95487.44
2023-08-29T11:15:52.271Z,95493.50
2023-08-29T11:20:07.872Z,95479.22
2023-08-29T11:24:22.850Z,95464.13
2023-08-29T11:28:35.615Z,95469.13
2023-08-29T11:32:54.556Z,95448.13
2023-08-29T11:37:11.908Z,95460.63
2023-08-29T11:41:40.195Z,95479.78
2023-08-29T11:46:00.456Z,95464.66
2023-08-29T11:50:13.839Z,95467.38
2023-08-29T11:54:54.651Z,95483.34
2023-08-29T11:59:07.111Z,95488.59
2023-08-29T12:03:24.352Z,95468.41
2023-08-29T12:07:36.878Z,95479.22
2023-08-29T12:11:49.377Z,95487.75
2023-08-29T12:16:02.160Z,95499.97
2023-08-29T12:20:14.626Z,95509.31
2023-08-29T12:24:27.227Z,95510.22
2023-08-29T12:28:40.887Z,95519.22
2023-08-29T12:32:53.538Z,95503.50
2023-08-29T12:37:07.514Z,95491.03
2023-08-29T12:41:20.059Z,95499.97
2023-08-29T12:45:41.414Z,95525.16
2023-08-29T12:50:02.357Z,95522.56
2023-08-29T12:54:14.910Z,95523.94
2023-08-29T12:58:27.475Z,95514.03
2023-08-29T13:02:40.057Z,95518.28
2023-08-29T13:06:52.643Z,95524.56
2023-08-29T13:11:05.630Z,95532.28
2023-08-29T13:15:18.653Z,95538.28
2023-08-29T13:19:31.175Z,95533.75
2023-08-29T13:23:44.419Z,95537.31
2023-08-29T13:27:57.578Z,95524.44
2023-08-29T13:32:10.974Z,95531.22
2023-08-29T13:36:23.616Z,95516.84
2023-08-29T13:40:36.762Z,95520.53
2023-08-29T13:44:49.330Z,95518.91
2023-08-29T13:49:02.823Z,95533.03
2023-08-29T13:53:15.521Z,95532.22
2023-08-29T13:57:28.106Z,95545.16
2023-08-29T14:01:40.775Z,95536.28
2023-08-29T14:05:56.049Z,95531.50
2023-08-29T14:10:09.343Z,95536.06
2023-08-29T14:14:22.079Z,95533.03
2023-08-29T14:18:38.278Z,95515.34
2023-08-29T14:22:51.120Z,95523.47
2023-08-29T14:27:03.689Z,95516.09
2023-08-29T14:31:16.275Z,95537.56
2023-08-29T14:35:29.698Z,95541.84
2023-08-29T14:39:42.303Z,95537.31
2023-08-29T14:43:55.033Z,95542.63
2023-08-29T14:48:09.513Z,95543.88
2023-08-29T14:52:23.805Z,95546.91
2023-08-29T14:56:38.675Z,95552.72
2023-08-29T15:00:51.250Z,95559.53
2023-08-29T15:05:03.851Z,95544.09
2023-08-29T15:09:17.007Z,95565.31
2023-08-29T15:13:32.483Z,95574.41
2023-08-29T15:17:44.991Z,95574.59
2023-08-29T15:21:57.630Z,95577.16
2023-08-29T15:26:10.211Z,95579.69
2023-08-29T15:30:22.768Z,95580.75
2023-08-29T15:34:36.363Z,95565.56
2023-08-29T15:38:49.298Z,95574.94
2023-08-29T15:43:01.817Z,95581.19
2023-08-29T15:47:14.369Z,95594.06
2023-08-29T15:51:26.881Z,95587.53
2023-08-29T15:55:39.421Z,95585.69
2023-08-29T15:59:52.948Z,95588.22
2023-08-29T16:04:05.518Z,95596.56
2023-08-29T16:08:18.309Z,95600.31
2023-08-29T16:12:32.074Z,95599.03
2023-08-29T16:16:44.654Z,95601.75
2023-08-29T16:20:57.232Z,95594.97
2023-08-29T16:25:10.640Z,95607.88
2023-08-29T16:29:23.158Z,95613.22
2023-08-29T16:33:35.822Z,95611.91
2023-08-29T16:37:48.351Z,95619.94
2023-08-29T16:42:00.828Z,95619.19
2023-08-29T16:46:14.716Z,95629.94
2023-08-29T16:50:27.364Z,95622.59
2023-08-29T16:54:39.916Z,95629.88
2023-08-29T16:58:52.388Z,95637.84
2023-08-29T17:03:11.545Z,95636.97
2023-08-29T17:07:25.721Z,95629.88
2023-08-29T17:11:38.257Z,95639.16
2023-08-29T17:15:50.917Z,95635.38
2023-08-29T17:20:04.656Z,95639.06
2023-08-29T17:24:17.166Z,95651.44
2023-08-29T17:28:29.701Z,95650.34
2023-08-29T17:32:44.219Z,95659.88
2023-08-29T17:36:59.984Z,95661.63
2023-08-29T17:41:12.470Z,95657.09
2023-08-29T17:45:25.733Z,95660.88
2023-08-29T17:49:38.253Z,95670.19
2023-08-29T17:53:51.092Z,95662.06
2023-08-29T17:58:03.619Z,95658.78
2023-08-29T18:02:17.413Z,95656.25
2023-08-29T18:06:30.605Z,95669.47
2023-08-29T18:10:43.359Z,95645.56
2023-08-29T18:14:55.868Z,95660.97
2023-08-29T18:19:08.432Z,95662.16
2023-08-29T18:23:21.998Z,95671.03
2023-08-29T18:27:34.550Z,95676.06
2023-08-29T18:31:47.053Z,95675.31
2023-08-29T18:35:59.757Z,95683.16
2023-08-29T18:40:13.445Z,95683.19
2023-08-29T18:44:26.336Z,95684.56
2023-08-29T18:48:38.920Z,95682.38
2023-08-29T18:52:51.674Z,95684.16
2023-08-29T18:57:05.701Z,95703.13
2023-08-29T19:01:18.218Z,95698.56
2023-08-29T19:05:30.853Z,95692.13
2023-08-29T19:09:44.718Z,95689.97
2023-08-29T19:13:57.210Z,95701.81
2023-08-29T19:18:10.710Z,95704.03
2023-08-29T19:22:23.863Z,95684.72
2023-08-29T19:26:40.738Z,95689.25
2023-08-29T19:30:56.703Z,95688.97
2023-08-29T19:35:10.557Z,95695.56
2023-08-29T19:39:24.742Z,95688.69
2023-08-29T19:43:37.751Z,95691.94
2023-08-29T19:47:51.162Z,95696.50
2023-08-29T19:52:03.735Z,95690.97
2023-08-29T19:56:19.150Z,95686.03
2023-08-29T20:00:33.585Z,95692.31
2023-08-29T20:04:46.292Z,95691.16
2023-08-29T20:08:58.768Z,95690.34
2023-08-29T20:13:11.350Z,95693.78
2023-08-29T20:17:23.906Z,95693.94
2023-08-29T20:21:36.875Z,95691.19
2023-08-29T20:25:49.464Z,95692.22
2023-08-29T20:30:01.998Z,95695.13
2023-08-29T20:34:14.565Z,95689.59
2023-08-29T20:38:27.717Z,95702.44
2023-08-29T20:42:40.499Z,95707.34
2023-08-29T20:46:53.722Z,95710.31
2023-08-29T20:51:06.207Z,95711.94
2023-08-29T20:55:19.064Z,95715.94
2023-08-29T20:59:31.519Z,95708.50
2023-08-29T21:03:44.693Z,95719.66
2023-08-29T21:07:57.685Z,95716.31
2023-08-29T21:12:10.973Z,95715.22
2023-08-29T21:16:24.177Z,95721.72
2023-08-29T21:20:39.369Z,95713.88
2023-08-29T21:24:51.902Z,95717.06
2023-08-29T21:29:04.410Z,95728.13
2023-08-29T21:33:17.137Z,95727.94
2023-08-29T21:37:29.602Z,95720.03
2023-08-29T21:41:42.465Z,95715.22
2023-08-29T21:45:58.046Z,95717.44
2023-08-29T21:50:11.081Z,95715.75
2023-08-29T21:54:24.389Z,95704.84
2023-08-29T21:58:37.365Z,95708.41
2023-08-29T22:02:49.907Z,95715.84
2023-08-29T22:07:02.440Z,95702.41
2023-08-29T22:11:15.212Z,95699.56
2023-08-29T22:15:27.695Z,95699.63
2023-08-29T22:19:40.168Z,95707.28
2023-08-29T22:23:52.678Z,95709.34
2023-08-29T22:28:06.138Z,95707.69
2023-08-29T22:32:19.433Z,95706.72
2023-08-29T22:36:31.964Z,95701.72
2023-08-29T22:40:44.435Z,95671.25
2023-08-29T22:44:56.905Z,95697.09
2023-08-29T22:49:09.402Z,95697.53
2023-08-29T22:53:21.995Z,95686.06
2023-08-29T22:57:34.465Z,95693.63
2023-08-29T23:01:49.496Z,95692.78
2023-08-29T23:06:02.534Z,95681.94
2023-08-29T23:10:15.250Z,95692.56
2023-08-29T23:14:29.957Z,95696.59
2023-08-29T23:18:44.021Z,95687.25
2023-08-29T23:22:56.485Z,95689.00
2023-08-29T23:27:08.921Z,95684.72
2023-08-29T23:31:21.497Z,95682.16
2023-08-29T23:35:34.057Z,95678.13
2023-08-29T23:39:46.633Z,95683.69
2023-08-29T23:43:59.138Z,95683.69
2023-08-29T23:48:12.227Z,95688.47
2023-08-29T23:52:25.148Z,95689.22
2023-08-29T23:56:37.646Z,95682.69
